Time;durP1;ratioP1;P1;durP2;ratioP2;P2;SDS_P1;SDS_P2;PMS_P1;PMS_P2;Temp;Humidity;BMP_temperature;BMP_pressure;BME280_temperature;BME280_humidity;BME280_pressure;Samples;Min_cycle;Max_cycle;Signal;HPM_P1;HPM_P2
2023/05/19 00:07:45;;;;;;;4.57;1.60;;;;;;;;;;20998101;28;20123;-60
2023/05/19 00:17:47;;;;;;;3.35;1.40;;;;;;;;;;20997517;28;20072;-61
2023/05/19 00:27:48;;;;;;;4.88;1.60;;;;;;;;;;20997911;28;20401;-62
2023/05/19 00:37:49;;;;;;;4.28;1.60;;;;;;;;;;21008484;28;20041;-62
2023/05/19 00:47:50;;;;;;;3.45;1.50;;;;;;;;;;21013682;28;20408;-60
2023/05/19 00:57:52;;;;;;;3.83;2.05;;;;;;;;;;21012876;28;20404;-61
2023/05/19 01:07:55;;;;;;;4.50;1.88;;;;;;;;;;21011941;28;20533;-61
2023/05/19 01:17:59;;;;;;;3.17;1.65;;;;;;;;;;21011056;28;20109;-61
2023/05/19 01:28:14;;;;;;;3.22;1.65;;;;;;;;;;21009288;28;20418;-60
2023/05/19 01:38:17;;;;;;;4.35;2.00;;;;;;;;;;21009590;28;20401;-61
2023/05/19 01:48:18;;;;;;;8.23;1.77;;;;;;;;;;21007985;28;20080;-61
2023/05/19 01:58:30;;;;;;;3.38;1.35;;;;;;;;;;21007929;28;20514;-60
2023/05/19 02:08:55;;;;;;;8.45;1.60;;;;;;;;;;21006658;28;20490;-62
2023/05/19 02:18:58;;;;;;;7.80;1.67;;;;;;;;;;20984090;28;20083;-61
2023/05/19 02:28:59;;;;;;;3.15;1.60;;;;;;;;;;21002902;28;20060;-61
2023/05/19 02:39:00;;;;;;;4.55;1.85;;;;;;;;;;21003254;28;20067;-60
2023/05/19 02:49:02;;;;;;;4.78;1.45;;;;;;;;;;21002970;28;20404;-60
2023/05/19 02:59:03;;;;;;;2.97;1.33;;;;;;;;;;21003108;28;20040;-61
2023/05/19 03:09:04;;;;;;;4.75;2.10;;;;;;;;;;21000944;28;20044;-61
2023/05/19 03:19:05;;;;;;;3.63;2.10;;;;;;;;;;21000084;28;20054;-61
2023/05/19 03:29:07;;;;;;;4.60;2.17;;;;;;;;;;21000421;28;20056;-60
2023/05/19 03:39:08;;;;;;;3.45;1.70;;;;;;;;;;20999327;28;20508;-62
2023/05/19 03:49:10;;;;;;;3.30;1.90;;;;;;;;;;20999094;28;20109;-61
2023/05/19 03:59:11;;;;;;;3.97;1.90;;;;;;;;;;20997460;28;20045;-60
2023/05/19 04:09:13;;;;;;;4.00;1.85;;;;;;;;;;20997916;28;20048;-61
2023/05/19 04:19:14;;;;;;;5.55;2.10;;;;;;;;;;20998914;28;20529;-61
2023/05/19 04:29:16;;;;;;;5.13;2.22;;;;;;;;;;20997979;28;20048;-61
2023/05/19 04:39:17;;;;;;;4.82;1.88;;;;;;;;;;20996733;28;20052;-61
2023/05/19 04:49:19;;;;;;;5.60;1.83;;;;;;;;;;20996406;28;20138;-61
2023/05/19 04:59:22;;;;;;;4.45;2.13;;;;;;;;;;20995826;28;20048;-60
2023/05/19 05:09:23;;;;;;;8.65;2.05;;;;;;;;;;20995648;28;20044;-60
2023/05/19 05:19:27;;;;;;;4.32;2.17;;;;;;;;;;20996971;28;20474;-61
2023/05/19 05:29:28;;;;;;;3.42;1.98;;;;;;;;;;21008756;28;20136;-61
2023/05/19 05:39:30;;;;;;;4.35;1.95;;;;;;;;;;21009131;28;20041;-62
2023/05/19 05:49:31;;;;;;;4.28;2.25;;;;;;;;;;21008234;28;20557;-61
2023/05/19 05:59:32;;;;;;;4.55;2.15;;;;;;;;;;21007338;28;20082;-60
2023/05/19 06:09:34;;;;;;;5.85;2.15;;;;;;;;;;21006468;28;20076;-61
2023/05/19 06:19:35;;;;;;;5.28;1.88;;;;;;;;;;21005936;28;20119;-61
2023/05/19 06:29:36;;;;;;;4.45;2.08;;;;;;;;;;21003242;28;20056;-60
2023/05/19 06:39:37;;;;;;;13.90;2.65;;;;;;;;;;21004034;28;20123;-62
2023/05/19 06:49:38;;;;;;;4.35;2.03;;;;;;;;;;21003083;28;20078;-60
2023/05/19 06:59:40;;;;;;;4.80;2.22;;;;;;;;;;21001526;28;20144;-61
2023/05/19 07:09:41;;;;;;;7.13;2.15;;;;;;;;;;21000055;28;20045;-62
2023/05/19 07:19:42;;;;;;;5.47;2.35;;;;;;;;;;20999999;28;20393;-61
2023/05/19 07:29:43;;;;;;;4.63;1.75;;;;;;;;;;20998472;28;20513;-62
2023/05/19 07:39:44;;;;;;;6.35;2.10;;;;;;;;;;20999151;28;20464;-62
2023/05/19 07:49:46;;;;;;;6.43;2.53;;;;;;;;;;20997550;28;20052;-61
2023/05/19 07:59:47;;;;;;;3.90;2.38;;;;;;;;;;20997004;28;20044;-61
2023/05/19 08:09:48;;;;;;;4.28;2.05;;;;;;;;;;20996114;28;20041;-69
2023/05/19 08:19:49;;;;;;;6.10;2.80;;;;;;;;;;20995941;28;20045;-69
2023/05/19 08:29:50;;;;;;;3.80;2.20;;;;;;;;;;20993733;28;20094;-67
2023/05/19 08:39:51;;;;;;;6.40;1.98;;;;;;;;;;20994802;28;20048;-61
2023/05/19 08:49:54;;;;;;;4.05;2.25;;;;;;;;;;20994802;28;20533;-62
2023/05/19 08:59:55;;;;;;;4.80;1.92;;;;;;;;;;21007692;28;20492;-58
2023/05/19 09:09:56;;;;;;;5.50;1.83;;;;;;;;;;21011491;28;20044;-68
2023/05/19 09:20:02;;;;;;;9.95;2.53;;;;;;;;;;21009995;28;20041;-66
2023/05/19 09:30:09;;;;;;;4.90;2.03;;;;;;;;;;21008021;28;20460;-66
2023/05/19 09:40:10;;;;;;;11.63;2.17;;;;;;;;;;21006967;28;20405;-65
2023/05/19 09:50:12;;;;;;;5.18;2.38;;;;;;;;;;21006389;28;20401;-67
2023/05/19 10:00:18;;;;;;;7.70;2.17;;;;;;;;;;21005243;28;20094;-63
2023/05/19 10:10:20;;;;;;;5.30;2.40;;;;;;;;;;21005225;28;20052;-68
2023/05/19 10:20:21;;;;;;;4.97;2.20;;;;;;;;;;21005158;28;20041;-63
2023/05/19 10:30:31;;;;;;;5.05;2.38;;;;;;;;;;21004954;28;20063;-70
2023/05/19 10:40:32;;;;;;;4.60;2.17;;;;;;;;;;21003486;28;20401;-64
2023/05/19 10:50:36;;;;;;;4.63;1.88;;;;;;;;;;20999526;28;20121;-62
2023/05/19 11:00:40;;;;;;;4.53;1.88;;;;;;;;;;21000229;28;20047;-62
2023/05/19 11:10:43;;;;;;;4.90;2.03;;;;;;;;;;20997514;28;20418;-61
2023/05/19 11:20:57;;;;;;;6.50;2.05;;;;;;;;;;20999284;28;20040;-60
2023/05/19 11:30:58;;;;;;;4.78;1.60;;;;;;;;;;21000975;28;20057;-64
2023/05/19 11:41:00;;;;;;;7.18;2.60;;;;;;;;;;20997479;28;20049;-62
2023/05/19 11:51:01;;;;;;;5.13;2.25;;;;;;;;;;20995978;28;20090;-68
2023/05/19 12:01:05;;;;;;;4.20;1.98;;;;;;;;;;20996369;28;20531;-63
2023/05/19 12:11:06;;;;;;;5.90;2.53;;;;;;;;;;20994729;28;20052;-64
2023/05/19 12:21:07;;;;;;;4.25;1.85;;;;;;;;;;20996204;28;20497;-61
2023/05/19 12:31:09;;;;;;;5.00;1.85;;;;;;;;;;20995398;28;20106;-61
2023/05/19 12:41:13;;;;;;;4.57;1.85;;;;;;;;;;20994769;28;20131;-62
2023/05/19 12:51:21;;;;;;;4.05;2.10;;;;;;;;;;20995727;28;20052;-61
2023/05/19 13:01:22;;;;;;;3.60;1.90;;;;;;;;;;20994437;28;20176;-60
2023/05/19 13:11:24;;;;;;;3.28;2.00;;;;;;;;;;20994627;28;20076;-61
2023/05/19 13:21:25;;;;;;;4.43;2.20;;;;;;;;;;20994491;28;20052;-61
2023/05/19 13:31:27;;;;;;;4.88;2.10;;;;;;;;;;20994901;28;20044;-61
2023/05/19 13:41:29;;;;;;;4.90;2.05;;;;;;;;;;20997693;28;20044;-61
2023/05/19 13:51:30;;;;;;;5.57;2.75;;;;;;;;;;21008157;28;20053;-60
2023/05/19 14:01:31;;;;;;;5.07;2.50;;;;;;;;;;21005974;28;20086;-61
2023/05/19 14:11:32;;;;;;;6.10;2.80;;;;;;;;;;21005459;28;20051;-62
2023/05/19 14:21:35;;;;;;;3.42;2.45;;;;;;;;;;21004841;28;20096;-64
2023/05/19 14:31:36;;;;;;;4.65;2.70;;;;;;;;;;21004039;28;20048;-61
2023/05/19 14:41:37;;;;;;;5.47;2.95;;;;;;;;;;21004649;28;20076;-60
2023/05/19 14:51:38;;;;;;;5.43;2.80;;;;;;;;;;21003037;28;20045;-61
2023/05/19 15:01:39;;;;;;;6.57;2.97;;;;;;;;;;21002387;28;20048;-62
2023/05/19 15:11:40;;;;;;;5.60;2.67;;;;;;;;;;21001070;28;20414;-61
2023/05/19 15:21:43;;;;;;;4.13;2.67;;;;;;;;;;21000345;28;20063;-60
2023/05/19 15:31:44;;;;;;;4.68;2.55;;;;;;;;;;20999578;28;20097;-68
2023/05/19 15:41:45;;;;;;;4.35;2.67;;;;;;;;;;20998029;28;20040;-63
2023/05/19 15:51:46;;;;;;;3.40;2.30;;;;;;;;;;20998193;28;20049;-64
2023/05/19 16:01:48;;;;;;;5.05;2.67;;;;;;;;;;20996901;28;20045;-63
2023/05/19 16:11:49;;;;;;;3.45;2.40;;;;;;;;;;20995325;28;20072;-65
2023/05/19 16:21:50;;;;;;;4.20;2.33;;;;;;;;;;20994820;28;20279;-62
2023/05/19 16:31:51;;;;;;;5.00;2.42;;;;;;;;;;20996539;28;20072;-61
2023/05/19 16:41:52;;;;;;;3.42;2.30;;;;;;;;;;20994679;28;20481;-62
2023/05/19 16:51:54;;;;;;;4.70;1.92;;;;;;;;;;20992425;28;20048;-68
2023/05/19 17:01:55;;;;;;;3.90;2.25;;;;;;;;;;20993625;28;20486;-65
2023/05/19 17:11:56;;;;;;;4.80;2.50;;;;;;;;;;20993326;28;20048;-63
2023/05/19 17:21:57;;;;;;;4.63;2.08;;;;;;;;;;21007540;28;20494;-65
2023/05/19 17:31:58;;;;;;;4.82;2.47;;;;;;;;;;21008175;28;20491;-66
2023/05/19 17:42:00;;;;;;;5.30;2.20;;;;;;;;;;21006597;28;20037;-63
2023/05/19 17:52:01;;;;;;;4.57;2.40;;;;;;;;;;21005432;28;20064;-63
2023/05/19 18:02:02;;;;;;;5.43;2.53;;;;;;;;;;21004812;28;20036;-68
2023/05/19 18:12:04;;;;;;;5.65;2.55;;;;;;;;;;21004598;28;20128;-68
2023/05/19 18:22:06;;;;;;;5.45;2.58;;;;;;;;;;21004712;28;20061;-66
2023/05/19 18:32:07;;;;;;;4.38;2.67;;;;;;;;;;21002544;28;20055;-70
2023/05/19 18:42:08;;;;;;;5.13;2.40;;;;;;;;;;21001939;28;20045;-67
2023/05/19 18:52:10;;;;;;;4.40;2.28;;;;;;;;;;21001741;28;20056;-66
2023/05/19 19:02:11;;;;;;;6.43;2.60;;;;;;;;;;21003309;28;20586;-67
2023/05/19 19:12:12;;;;;;;3.63;2.20;;;;;;;;;;21000809;28;20055;-66
2023/05/19 19:22:13;;;;;;;7.10;2.92;;;;;;;;;;21000954;28;20060;-67
2023/05/19 19:32:14;;;;;;;5.47;2.38;;;;;;;;;;20999911;28;20048;-66
2023/05/19 19:42:15;;;;;;;5.90;2.47;;;;;;;;;;20998624;28;20051;-66
2023/05/19 19:52:16;;;;;;;5.65;2.67;;;;;;;;;;20997988;28;20048;-65
2023/05/19 20:02:17;;;;;;;7.13;2.88;;;;;;;;;;20996751;28;20041;-66
2023/05/19 20:12:19;;;;;;;5.15;2.60;;;;;;;;;;20996157;28;20071;-66
2023/05/19 20:22:20;;;;;;;4.60;2.22;;;;;;;;;;20995691;28;20448;-66
2023/05/19 20:32:21;;;;;;;5.07;2.45;;;;;;;;;;20996015;28;20048;-67
2023/05/19 20:42:22;;;;;;;4.53;2.45;;;;;;;;;;20996089;28;20058;-68
2023/05/19 20:52:23;;;;;;;3.30;2.10;;;;;;;;;;21003216;28;20105;-67
2023/05/19 21:02:24;;;;;;;4.32;2.28;;;;;;;;;;21011411;28;20044;-67
2023/05/19 21:12:28;;;;;;;5.32;1.80;;;;;;;;;;21009614;28;20040;-68
2023/05/19 21:22:29;;;;;;;4.93;2.20;;;;;;;;;;21008394;28;20370;-66
2023/05/19 21:32:30;;;;;;;5.05;2.30;;;;;;;;;;21007747;28;20129;-66
2023/05/19 21:42:31;;;;;;;4.72;2.10;;;;;;;;;;21005653;28;20048;-66
2023/05/19 21:52:34;;;;;;;5.50;1.75;;;;;;;;;;21006092;28;20076;-66
2023/05/19 22:02:35;;;;;;;3.92;2.05;;;;;;;;;;21004189;28;20120;-64
2023/05/19 22:12:37;;;;;;;6.97;2.15;;;;;;;;;;21005209;28;20066;-65
2023/05/19 22:22:38;;;;;;;3.30;1.98;;;;;;;;;;21005770;28;20060;-65
2023/05/19 22:32:39;;;;;;;4.32;2.30;;;;;;;;;;21003976;28;20117;-65
2023/05/19 22:42:40;;;;;;;3.92;2.10;;;;;;;;;;21003953;28;20055;-65
2023/05/19 22:52:41;;;;;;;5.05;2.20;;;;;;;;;;21001693;28;20056;-66
2023/05/19 23:02:42;;;;;;;7.13;2.13;;;;;;;;;;21000517;28;20090;-65
2023/05/19 23:12:43;;;;;;;3.38;2.00;;;;;;;;;;20999788;28;20048;-65
2023/05/19 23:22:44;;;;;;;5.97;2.10;;;;;;;;;;20997970;28;20102;-65
2023/05/19 23:32:46;;;;;;;6.13;2.35;;;;;;;;;;20998465;28;20048;-66
2023/05/19 23:42:47;;;;;;;3.33;1.80;;;;;;;;;;20998090;28;20044;-66
2023/05/19 23:52:48;;;;;;;2.58;1.90;;;;;;;;;;20999284;28;20052;-65
